createdAt,value
2017-09-27T00:00:49.840Z,14.87
2017-09-27T00:03:18.969Z,14.85
2017-09-27T00:05:48.841Z,14.82
2017-09-27T00:08:17.913Z,14.74
2017-09-27T00:10:46.972Z,14.70
2017-09-27T00:13:16.851Z,14.64
2017-09-27T00:15:45.941Z,14.65
2017-09-27T00:18:15.002Z,14.64
2017-09-27T00:20:44.082Z,14.63
2017-09-27T00:23:14.339Z,14.65
2017-09-27T00:25:43.431Z,14.67
2017-09-27T00:28:12.488Z,14.70
2017-09-27T00:30:42.334Z,14.74
2017-09-27T00:33:11.635Z,14.76
2017-09-27T00:35:41.509Z,14.75
2017-09-27T00:38:11.337Z,14.80
2017-09-27T00:40:40.395Z,14.82
2017-09-27T00:43:09.503Z,14.83
2017-09-27T00:45:38.580Z,14.86
2017-09-27T00:48:07.631Z,14.80
2017-09-27T00:50:36.693Z,14.71
2017-09-27T00:53:06.529Z,14.69
2017-09-27T00:55:35.610Z,14.68
2017-09-27T00:58:05.448Z,14.70
2017-09-27T01:00:34.520Z,14.70
2017-09-27T01:03:04.340Z,14.68
2017-09-27T01:05:33.419Z,14.73
2017-09-27T01:08:03.252Z,14.67
2017-09-27T01:10:32.318Z,14.65
2017-09-27T01:13:01.380Z,14.60
2017-09-27T01:15:30.436Z,14.53
2017-09-27T01:17:59.519Z,14.53
2017-09-27T01:20:29.364Z,14.49
2017-09-27T01:22:58.649Z,14.51
2017-09-27T01:25:27.821Z,14.53
2017-09-27T01:27:57.682Z,14.53
2017-09-27T01:30:26.731Z,14.56
2017-09-27T01:32:56.584Z,14.53
2017-09-27T01:35:25.723Z,14.53
2017-09-27T01:37:54.743Z,14.53
2017-09-27T01:40:24.604Z,14.58
2017-09-27T01:42:53.946Z,14.61
2017-09-27T01:45:23.010Z,14.62
2017-09-27T01:47:52.091Z,14.59
2017-09-27T01:50:21.191Z,14.56
2017-09-27T01:52:50.275Z,14.53
2017-09-27T01:55:19.397Z,14.51
2017-09-27T01:57:48.473Z,14.47
2017-09-27T02:00:17.520Z,14.40
2017-09-27T02:02:47.367Z,14.39
2017-09-27T02:05:16.456Z,14.43
2017-09-27T02:07:45.534Z,14.43
2017-09-27T02:10:15.404Z,14.48
2017-09-27T02:12:45.212Z,14.46
2017-09-27T02:15:14.300Z,14.40
2017-09-27T02:17:43.375Z,14.31
2017-09-27T02:20:12.480Z,14.33
2017-09-27T02:22:41.513Z,14.33
2017-09-27T02:25:10.605Z,14.32
2017-09-27T02:27:39.662Z,14.33
2017-09-27T02:30:08.780Z,14.33
2017-09-27T02:32:37.984Z,14.34
2017-09-27T02:35:07.070Z,14.32
2017-09-27T02:37:36.133Z,14.29
2017-09-27T02:40:05.187Z,14.27
2017-09-27T02:42:34.235Z,14.25
2017-09-27T02:45:03.293Z,14.27
2017-09-27T02:47:33.139Z,14.21
2017-09-27T02:50:02.212Z,14.19
2017-09-27T02:52:31.345Z,14.13
2017-09-27T02:55:00.398Z,14.08
2017-09-27T02:57:30.404Z,14.04
2017-09-27T02:59:59.465Z,14.00
2017-09-27T03:02:28.609Z,13.98
2017-09-27T03:04:58.443Z,13.97
2017-09-27T03:07:27.512Z,13.94
2017-09-27T03:09:57.370Z,13.88
2017-09-27T03:12:26.428Z,13.84
2017-09-27T03:14:56.261Z,13.82
2017-09-27T03:17:25.332Z,13.78
2017-09-27T03:19:55.205Z,13.75
2017-09-27T03:22:24.472Z,13.65
2017-09-27T03:24:53.532Z,13.58
2017-09-27T03:27:23.985Z,13.54
2017-09-27T03:29:53.198Z,13.53
2017-09-27T03:32:22.231Z,13.52
2017-09-27T03:34:51.284Z,13.52
2017-09-27T03:37:20.389Z,13.53
2017-09-27T03:39:49.481Z,13.53
2017-09-27T03:42:18.527Z,13.54
2017-09-27T03:44:47.593Z,13.51
2017-09-27T03:47:16.707Z,13.48
2017-09-27T03:49:46.583Z,13.47
2017-09-27T03:52:15.656Z,13.47
2017-09-27T03:54:44.779Z,13.45
2017-09-27T03:57:13.880Z,13.44
2017-09-27T03:59:42.935Z,13.44
2017-09-27T04:02:12.020Z,13.44
2017-09-27T04:04:41.845Z,13.47
2017-09-27T04:07:10.929Z,13.44
2017-09-27T04:09:40.757Z,13.45
2017-09-27T04:12:09.839Z,13.45
2017-09-27T04:14:39.691Z,13.48
2017-09-27T04:17:08.736Z,13.48
2017-09-27T04:19:37.815Z,13.52
2017-09-27T04:22:06.884Z,13.50
2017-09-27T04:24:35.999Z,13.49
2017-09-27T04:27:05.036Z,13.50
2017-09-27T04:29:34.093Z,13.50
2017-09-27T04:32:03.168Z,13.49
2017-09-27T04:34:32.248Z,13.48
2017-09-27T04:37:01.320Z,13.48
2017-09-27T04:39:30.379Z,13.48
2017-09-27T04:41:59.481Z,13.43
2017-09-27T04:44:28.551Z,13.40
2017-09-27T04:46:57.640Z,13.37
2017-09-27T04:49:26.700Z,13.36
2017-09-27T04:51:55.747Z,13.34
2017-09-27T04:54:24.821Z,13.31
2017-09-27T04:56:53.879Z,13.29
2017-09-27T04:59:23.687Z,13.32
2017-09-27T05:01:53.511Z,13.32
2017-09-27T05:04:22.591Z,13.28
2017-09-27T05:06:52.440Z,13.23
2017-09-27T05:09:21.507Z,13.23
2017-09-27T05:11:51.340Z,13.22
2017-09-27T05:14:20.403Z,13.19
2017-09-27T05:16:50.249Z,13.20
2017-09-27T05:19:19.331Z,13.22
2017-09-27T05:21:48.402Z,13.24
2017-09-27T05:24:17.482Z,13.27
2017-09-27T05:26:46.516Z,13.27
2017-09-27T05:29:15.614Z,13.33
2017-09-27T05:31:45.471Z,13.37
2017-09-27T05:34:14.642Z,13.42
2017-09-27T05:36:43.689Z,13.49
2017-09-27T05:39:12.756Z,13.54
2017-09-27T05:41:41.852Z,13.53
2017-09-27T05:44:10.900Z,13.55
2017-09-27T05:46:39.957Z,13.56
2017-09-27T05:49:09.076Z,13.60
2017-09-27T05:51:38.921Z,13.65
2017-09-27T05:54:07.999Z,13.71
2017-09-27T05:56:37.823Z,13.78
2017-09-27T05:59:06.921Z,13.80
2017-09-27T06:01:35.997Z,13.79
2017-09-27T06:04:05.849Z,13.82
2017-09-27T06:06:34.919Z,13.89
2017-09-27T06:09:03.980Z,13.90
2017-09-27T06:11:33.084Z,13.93
2017-09-27T06:14:02.908Z,13.92
2017-09-27T06:16:32.748Z,13.96
2017-09-27T06:19:01.801Z,14.09
2017-09-27T06:21:31.669Z,14.16
2017-09-27T06:24:00.737Z,14.17
2017-09-27T06:26:29.790Z,14.18
2017-09-27T06:28:58.868Z,14.23
2017-09-27T06:31:27.940Z,14.30
2017-09-27T06:33:57.016Z,14.38
2017-09-27T06:36:26.111Z,14.40
2017-09-27T06:38:55.941Z,14.40
2017-09-27T06:41:25.007Z,14.44
2017-09-27T06:43:54.861Z,14.44
2017-09-27T06:46:23.923Z,14.43
2017-09-27T06:48:53.734Z,14.50
2017-09-27T06:51:22.821Z,14.51
2017-09-27T06:53:52.656Z,14.61
2017-09-27T06:56:21.747Z,14.71
2017-09-27T06:58:50.843Z,14.78
2017-09-27T07:01:19.905Z,14.87
2017-09-27T07:03:48.991Z,14.94
2017-09-27T07:06:18.062Z,15.02
2017-09-27T07:08:47.126Z,15.11
2017-09-27T07:11:16.390Z,15.16
2017-09-27T07:13:45.460Z,15.24
2017-09-27T07:16:14.513Z,15.26
2017-09-27T07:18:43.612Z,15.32
2017-09-27T07:21:14.487Z,15.32
2017-09-27T07:23:44.336Z,15.30
2017-09-27T07:26:14.152Z,15.34
2017-09-27T07:28:44.004Z,15.41
2017-09-27T07:31:13.096Z,15.50
2017-09-27T07:33:42.157Z,15.59
2017-09-27T07:36:12.022Z,15.68
2017-09-27T07:38:41.165Z,15.78
2017-09-27T07:41:10.228Z,15.86
2017-09-27T07:43:39.297Z,15.94
2017-09-27T07:48:42.579Z,16.05
2017-09-27T07:51:12.410Z,16.10
2017-09-27T07:53:42.242Z,16.17
2017-09-27T07:56:11.333Z,16.25
2017-09-27T07:58:40.400Z,16.38
2017-09-27T08:01:10.222Z,16.43
2017-09-27T08:03:39.286Z,16.51
2017-09-27T08:06:08.352Z,16.55
2017-09-27T08:08:37.438Z,16.60
2017-09-27T08:11:06.509Z,16.63
2017-09-27T08:13:35.583Z,16.67
2017-09-27T08:16:05.412Z,16.68
2017-09-27T08:18:34.489Z,16.74
2017-09-27T08:21:04.363Z,16.83
2017-09-27T08:23:33.421Z,16.94
2017-09-27T08:26:02.500Z,17.06
2017-09-27T08:28:31.581Z,17.16
2017-09-27T08:31:00.677Z,17.29
2017-09-27T08:33:30.521Z,17.43
2017-09-27T08:36:00.369Z,17.51
2017-09-27T08:38:29.433Z,17.61
2017-09-27T08:40:58.712Z,17.68
2017-09-27T08:43:28.547Z,17.78
2017-09-27T08:45:57.611Z,17.86
2017-09-27T08:48:27.453Z,17.98
2017-09-27T08:50:56.512Z,18.02
2017-09-27T08:53:26.371Z,18.02
2017-09-27T08:55:55.472Z,18.04
2017-09-27T08:58:25.139Z,18.13
2017-09-27T09:00:55.032Z,18.22
2017-09-27T09:03:24.824Z,18.24
2017-09-27T09:05:53.928Z,18.24
2017-09-27T09:08:22.955Z,18.24
2017-09-27T09:10:53.093Z,18.28
2017-09-27T09:13:22.152Z,18.36
2017-09-27T09:15:51.238Z,18.37
2017-09-27T09:18:20.321Z,18.29
2017-09-27T09:20:49.393Z,18.35
2017-09-27T09:23:18.476Z,18.40
2017-09-27T09:25:47.534Z,18.45
2017-09-27T09:28:16.612Z,18.46
2017-09-27T09:30:45.674Z,18.50
2017-09-27T09:33:14.747Z,18.59
2017-09-27T09:35:44.584Z,18.68
2017-09-27T09:38:13.665Z,18.79
2017-09-27T09:40:42.734Z,18.81
2017-09-27T09:43:12.620Z,18.78
2017-09-27T09:45:41.701Z,18.81
2017-09-27T09:48:10.789Z,18.94
2017-09-27T09:50:39.898Z,19.02
2017-09-27T09:53:08.921Z,19.11
2017-09-27T09:55:38.014Z,19.25
2017-09-27T09:58:07.060Z,19.38
2017-09-27T10:00:36.155Z,19.49
2017-09-27T10:03:05.237Z,19.60
2017-09-27T10:05:35.052Z,19.70
2017-09-27T10:08:04.145Z,19.45
2017-09-27T10:10:33.198Z,19.41
2017-09-27T10:13:02.259Z,19.50
2017-09-27T10:15:31.332Z,19.58
2017-09-27T10:18:00.413Z,19.71
2017-09-27T10:20:29.522Z,19.77
2017-09-27T10:22:59.348Z,19.85
2017-09-27T10:25:28.440Z,19.90
2017-09-27T10:27:57.551Z,19.98
2017-09-27T10:30:26.589Z,20.03
2017-09-27T10:32:56.438Z,20.05
2017-09-27T10:35:25.501Z,20.08
2017-09-27T10:37:54.593Z,20.15
2017-09-27T10:40:24.459Z,20.04
2017-09-27T10:42:53.533Z,19.90
2017-09-27T10:45:22.633Z,19.83
2017-09-27T10:47:51.699Z,19.75
2017-09-27T10:50:21.513Z,19.78
2017-09-27T10:52:51.385Z,19.89
2017-09-27T10:55:20.440Z,20.01
2017-09-27T10:57:49.537Z,20.05
2017-09-27T11:00:18.603Z,20.05
2017-09-27T11:02:50.814Z,20.06
2017-09-27T11:05:20.907Z,20.15
2017-09-27T11:07:49.984Z,20.22
2017-09-27T11:10:19.844Z,20.30
2017-09-27T11:12:48.990Z,20.34
2017-09-27T11:15:18.081Z,20.36
2017-09-27T11:17:47.144Z,20.36
2017-09-27T11:20:16.227Z,20.39
2017-09-27T11:22:45.288Z,20.34
2017-09-27T11:25:14.410Z,20.31
2017-09-27T11:27:43.468Z,20.29
2017-09-27T11:30:13.306Z,20.31
2017-09-27T11:32:42.373Z,20.32
2017-09-27T11:35:12.198Z,20.34
2017-09-27T11:37:42.036Z,20.34
2017-09-27T11:40:11.140Z,20.37
2017-09-27T11:42:40.222Z,20.42
2017-09-27T11:45:09.326Z,20.50
2017-09-27T11:47:38.427Z,20.53
2017-09-27T11:50:07.479Z,20.64
2017-09-27T11:52:37.308Z,20.78
2017-09-27T11:55:06.415Z,20.84
2017-09-27T11:57:35.477Z,20.86
2017-09-27T12:00:05.296Z,20.92
2017-09-27T12:02:35.146Z,20.89
2017-09-27T12:05:04.502Z,20.88
2017-09-27T12:07:33.560Z,20.93
2017-09-27T12:10:02.640Z,21.04
2017-09-27T12:12:31.738Z,21.14
2017-09-27T12:15:00.821Z,21.18
2017-09-27T12:17:29.895Z,21.12
2017-09-27T12:19:59.777Z,21.09
2017-09-27T12:22:28.918Z,21.06
2017-09-27T12:24:58.720Z,20.95
2017-09-27T12:27:27.787Z,20.84
2017-09-27T12:29:56.876Z,20.74
2017-09-27T12:32:25.936Z,20.75
2017-09-27T12:34:55.024Z,20.78
2017-09-27T12:37:24.089Z,20.80
2017-09-27T12:39:54.299Z,20.77
2017-09-27T12:42:23.348Z,20.73
2017-09-27T12:44:52.433Z,20.68
2017-09-27T12:47:21.558Z,20.73
2017-09-27T12:49:50.623Z,20.71
2017-09-27T12:52:19.712Z,20.67
2017-09-27T12:54:48.870Z,20.65
2017-09-27T12:57:17.917Z,20.60
2017-09-27T12:59:47.026Z,20.60
2017-09-27T13:02:16.093Z,20.63
2017-09-27T13:04:45.185Z,20.66
2017-09-27T13:07:14.279Z,20.71
2017-09-27T13:09:43.376Z,20.77
2017-09-27T13:12:12.451Z,20.75
2017-09-27T13:14:42.269Z,20.73
2017-09-27T13:17:11.357Z,20.75
2017-09-27T13:19:41.209Z,20.74
2017-09-27T13:22:10.321Z,20.73
2017-09-27T13:24:39.409Z,20.74
2017-09-27T13:27:08.462Z,20.73
2017-09-27T13:29:37.556Z,20.74
2017-09-27T13:32:07.420Z,20.66
2017-09-27T13:34:36.518Z,20.64
2017-09-27T13:37:07.548Z,20.62
2017-09-27T13:39:36.629Z,20.56
2017-09-27T13:42:05.693Z,20.60
2017-09-27T13:44:35.552Z,20.59
2017-09-27T13:47:04.628Z,20.60
2017-09-27T13:49:33.732Z,20.71
2017-09-27T13:52:02.793Z,20.74
2017-09-27T13:54:32.624Z,20.80
2017-09-27T13:57:01.696Z,20.83
2017-09-27T13:59:31.537Z,20.82
2017-09-27T14:02:00.596Z,20.81
2017-09-27T14:04:30.429Z,20.85
2017-09-27T14:06:59.513Z,20.91
2017-09-27T14:09:29.411Z,20.88
2017-09-27T14:11:58.521Z,20.90
2017-09-27T14:14:28.505Z,20.89
2017-09-27T14:16:57.742Z,20.87
2017-09-27T14:19:27.563Z,20.84
2017-09-27T14:21:57.456Z,20.80
2017-09-27T14:24:26.532Z,20.83
2017-09-27T14:26:55.620Z,20.77
2017-09-27T14:29:24.676Z,20.65
2017-09-27T14:31:53.839Z,20.53
2017-09-27T14:34:22.902Z,20.46
2017-09-27T14:36:51.996Z,20.33
2017-09-27T14:39:21.045Z,20.37
2017-09-27T14:41:50.145Z,20.36
2017-09-27T14:44:20.203Z,20.35
2017-09-27T14:46:49.334Z,20.33
2017-09-27T14:49:19.197Z,20.35
2017-09-27T14:51:48.304Z,20.43
2017-09-27T14:54:17.363Z,20.49
2017-09-27T14:56:46.425Z,20.56
2017-09-27T14:59:15.486Z,20.65
2017-09-27T15:01:44.597Z,20.64
2017-09-27T15:04:13.698Z,20.64
2017-09-27T15:06:42.756Z,20.63
2017-09-27T15:09:11.839Z,20.55
2017-09-27T15:11:40.916Z,20.50
2017-09-27T15:14:10.022Z,20.47
2017-09-27T15:16:39.882Z,20.47
2017-09-27T15:19:09.005Z,20.46
2017-09-27T15:21:38.106Z,20.43
2017-09-27T15:24:07.953Z,20.38
2017-09-27T15:26:37.026Z,20.29
2017-09-27T15:29:06.124Z,20.24
2017-09-27T15:31:35.178Z,20.18
2017-09-27T15:34:04.564Z,20.13
2017-09-27T15:36:33.705Z,20.11
2017-09-27T15:39:02.774Z,20.08
2017-09-27T15:41:31.820Z,20.09
2017-09-27T15:44:00.905Z,20.02
2017-09-27T15:46:30.080Z,19.94
2017-09-27T15:48:59.205Z,19.86
2017-09-27T15:51:29.121Z,19.83
2017-09-27T15:53:58.177Z,19.79
2017-09-27T15:56:27.245Z,19.79
2017-09-27T15:58:56.337Z,19.83
2017-09-27T16:01:25.427Z,19.78
2017-09-27T16:03:54.499Z,19.77
2017-09-27T16:06:23.561Z,19.77
2017-09-27T16:08:53.559Z,19.71
2017-09-27T16:11:22.975Z,19.66
2017-09-27T16:13:52.072Z,19.57
2017-09-27T16:16:21.180Z,19.54
2017-09-27T16:18:50.236Z,19.47
2017-09-27T16:21:19.363Z,19.43
2017-09-27T16:23:48.451Z,19.39
2017-09-27T16:26:17.556Z,19.36
2017-09-27T16:28:46.945Z,19.38
2017-09-27T16:31:15.998Z,19.37
2017-09-27T16:33:45.178Z,19.37
2017-09-27T16:36:14.690Z,19.40
2017-09-27T16:38:44.106Z,19.38
2017-09-27T16:41:13.204Z,19.38
2017-09-27T16:43:42.256Z,19.33
2017-09-27T16:46:12.106Z,19.32
2017-09-27T16:48:41.171Z,19.34
2017-09-27T16:51:11.764Z,19.36
2017-09-27T16:53:40.831Z,19.34
2017-09-27T16:56:09.910Z,19.35
2017-09-27T16:58:38.987Z,19.30
2017-09-27T17:01:08.848Z,19.26
2017-09-27T17:03:37.913Z,19.24
2017-09-27T17:06:07.004Z,19.14
2017-09-27T17:08:36.110Z,19.08
2017-09-27T17:11:05.188Z,19.03
2017-09-27T17:13:34.280Z,18.97
2017-09-27T17:16:03.397Z,18.89
2017-09-27T17:18:32.476Z,18.81
2017-09-27T17:21:02.300Z,18.75
2017-09-27T17:23:31.386Z,18.69
2017-09-27T17:26:01.223Z,18.65
2017-09-27T17:28:30.304Z,18.56
2017-09-27T17:30:59.391Z,18.52
2017-09-27T17:33:28.466Z,18.44
2017-09-27T17:35:58.298Z,18.27
2017-09-27T17:38:27.418Z,18.10
2017-09-27T17:40:56.465Z,17.94
2017-09-27T17:43:26.329Z,17.80
2017-09-27T17:45:55.450Z,17.77
2017-09-27T17:48:24.521Z,17.79
2017-09-27T17:50:53.669Z,17.81
2017-09-27T17:53:22.770Z,17.77
2017-09-27T17:55:52.655Z,17.69
2017-09-27T17:58:21.737Z,17.69
2017-09-27T18:00:50.853Z,17.69
2017-09-27T18:03:19.948Z,17.63
2017-09-27T18:05:55.938Z,17.62
2017-09-27T18:11:47.493Z,17.57
2017-09-27T18:14:22.162Z,17.48
2017-09-27T18:19:52.072Z,17.28
2017-09-27T18:22:21.187Z,17.21
2017-09-27T18:24:50.325Z,17.12
2017-09-27T18:27:20.184Z,17.05
2017-09-27T18:29:49.329Z,17.00
2017-09-27T18:32:19.239Z,16.96
2017-09-27T18:34:48.326Z,16.93
2017-09-27T18:37:17.414Z,16.85
2017-09-27T18:39:46.476Z,16.81
2017-09-27T18:42:16.493Z,16.80
2017-09-27T18:44:45.577Z,16.75
2017-09-27T18:47:14.658Z,16.71
2017-09-27T18:49:43.737Z,16.70
2017-09-27T18:52:13.846Z,16.67
2017-09-27T18:54:42.932Z,16.59
2017-09-27T18:57:12.036Z,16.58
2017-09-27T18:59:41.138Z,16.55
2017-09-27T19:02:10.254Z,16.54
2017-09-27T19:04:40.084Z,16.48
2017-09-27T19:07:09.204Z,16.44
2017-09-27T19:09:38.350Z,16.40
2017-09-27T19:12:08.210Z,16.41
2017-09-27T19:14:37.284Z,16.43
2017-09-27T19:17:06.376Z,16.43
2017-09-27T19:19:36.065Z,16.40
2017-09-27T19:22:05.123Z,16.37
2017-09-27T19:24:34.745Z,16.34
2017-09-27T19:27:03.812Z,16.31
2017-09-27T19:29:32.888Z,16.28
2017-09-27T19:32:02.106Z,16.29
2017-09-27T19:34:31.176Z,16.23
2017-09-27T19:37:00.318Z,16.14
2017-09-27T19:39:29.415Z,16.12
2017-09-27T19:41:58.525Z,16.09
2017-09-27T19:44:27.698Z,16.06
2017-09-27T19:46:56.812Z,16.04
2017-09-27T19:49:26.282Z,15.97
2017-09-27T19:51:56.116Z,15.96
2017-09-27T19:54:25.640Z,15.97
2017-09-27T19:56:54.733Z,15.96
2017-09-27T19:59:23.814Z,15.93
2017-09-27T20:01:52.939Z,15.86
2017-09-27T20:04:22.788Z,15.83
2017-09-27T20:06:51.865Z,15.79
2017-09-27T20:09:20.946Z,15.79
2017-09-27T20:11:50.769Z,15.78
2017-09-27T20:14:19.852Z,15.77
2017-09-27T20:16:49.675Z,15.74
2017-09-27T20:19:18.768Z,15.71
2017-09-27T20:21:48.624Z,15.67
2017-09-27T20:24:17.691Z,15.63
2017-09-27T20:26:47.160Z,15.61
2017-09-27T20:29:16.536Z,15.54
2017-09-27T20:31:45.937Z,15.51
2017-09-27T20:34:15.390Z,15.47
2017-09-27T20:36:44.453Z,15.43
2017-09-27T20:39:13.522Z,15.40
2017-09-27T20:41:42.601Z,15.36
2017-09-27T20:44:11.684Z,15.33
2017-09-27T20:46:40.766Z,15.31
2017-09-27T20:49:09.881Z,15.33
2017-09-27T20:51:39.012Z,15.31
2017-09-27T20:54:08.074Z,15.22
2017-09-27T20:56:37.189Z,15.15
2017-09-27T20:59:06.261Z,15.13
2017-09-27T21:01:35.359Z,15.08
2017-09-27T21:04:04.537Z,15.06
2017-09-27T21:06:34.681Z,15.03
2017-09-27T21:09:03.783Z,14.99
2017-09-27T21:11:32.836Z,14.96
2017-09-27T21:14:02.912Z,14.92
2017-09-27T21:16:31.993Z,14.86
2017-09-27T21:19:01.037Z,14.83
2017-09-27T21:21:30.883Z,14.80
2017-09-27T21:23:59.965Z,14.79
2017-09-27T21:26:29.056Z,14.76
2017-09-27T21:28:58.901Z,14.74
2017-09-27T21:31:27.982Z,14.73
2017-09-27T21:33:57.043Z,14.72
2017-09-27T21:36:26.908Z,14.70
2017-09-27T21:38:55.994Z,14.69
2017-09-27T21:41:25.077Z,14.67
2017-09-27T21:43:54.252Z,14.65
2017-09-27T21:46:23.299Z,14.65
2017-09-27T21:48:52.376Z,14.66
2017-09-27T21:51:21.448Z,14.66
2017-09-27T21:53:51.264Z,14.63
2017-09-27T21:56:20.329Z,14.63
2017-09-27T21:58:49.431Z,14.67
2017-09-27T22:01:18.494Z,14.57
2017-09-27T22:03:47.563Z,14.60
2017-09-27T22:06:16.657Z,14.59
2017-09-27T22:08:45.874Z,14.58
2017-09-27T22:11:14.976Z,14.61
2017-09-27T22:13:44.376Z,14.62
2017-09-27T22:16:14.243Z,14.55
2017-09-27T22:18:44.125Z,14.58
2017-09-27T22:21:13.201Z,14.66
2017-09-27T22:23:42.326Z,14.72
2017-09-27T22:26:11.414Z,14.77
2017-09-27T22:28:40.484Z,14.81
2017-09-27T22:31:09.580Z,14.76
2017-09-27T22:33:38.653Z,14.82
2017-09-27T22:36:07.713Z,14.86
2017-09-27T22:38:36.792Z,14.92
2017-09-27T22:41:05.856Z,14.95
2017-09-27T22:43:34.949Z,15.00
2017-09-27T22:46:04.091Z,15.01
2017-09-27T22:48:33.121Z,15.03
2017-09-27T22:51:02.653Z,15.05
2017-09-27T22:53:31.714Z,15.11
2017-09-27T22:56:00.882Z,15.10
2017-09-27T22:58:29.948Z,15.16
2017-09-27T23:00:59.912Z,15.17
2017-09-27T23:03:29.751Z,15.18
2017-09-27T23:05:58.832Z,15.18
2017-09-27T23:08:27.903Z,15.17
2017-09-27T23:10:58.657Z,15.15
2017-09-27T23:13:27.734Z,15.18
2017-09-27T23:15:59.406Z,15.17
2017-09-27T23:18:29.524Z,15.18
2017-09-27T23:20:59.557Z,15.20
2017-09-27T23:23:28.616Z,15.22
2017-09-27T23:25:58.442Z,15.24
2017-09-27T23:28:28.281Z,15.20
2017-09-27T23:30:57.384Z,15.16
2017-09-27T23:33:26.464Z,15.19
2017-09-27T23:35:55.556Z,15.19
2017-09-27T23:38:24.672Z,15.18
2017-09-27T23:40:53.732Z,15.17
2017-09-27T23:43:23.573Z,15.16
2017-09-27T23:45:52.645Z,15.20
2017-09-27T23:48:22.477Z,15.17
2017-09-27T23:50:51.564Z,15.23
2017-09-27T23:53:20.645Z,15.24
2017-09-27T23:55:50.473Z,15.24
2017-09-27T23:58:19.561Z,15.25
